createdAt,value
2019-04-11T00:00:07.157Z,1007.09
2019-04-11T00:01:08.033Z,1007.17
2019-04-11T00:02:07.130Z,1007.04
2019-04-11T00:03:07.141Z,1007.06
2019-04-11T00:04:08.236Z,1007.08
2019-04-11T00:05:07.095Z,1007.15
2019-04-11T00:06:07.551Z,1007.08
2019-04-11T00:07:07.843Z,1007.13
2019-04-11T00:08:08.029Z,1007.12
2019-04-11T00:09:08.104Z,1007.13
2019-04-11T00:10:08.189Z,1007.15
2019-04-11T00:11:07.087Z,1007.13
2019-04-11T00:12:08.306Z,1007.11
2019-04-11T00:13:18.213Z,1007.10
2019-04-11T00:14:08.002Z,1007.12
2019-04-11T00:15:07.007Z,1007.17
2019-04-11T00:16:07.003Z,1007.20
2019-04-11T00:17:07.834Z,1007.11
2019-04-11T00:18:08.168Z,1007.11
2019-04-11T00:19:07.286Z,1007.11
2019-04-11T00:20:07.660Z,1007.16
2019-04-11T00:21:06.927Z,1007.14
2019-04-11T00:22:06.943Z,1007.16
2019-04-11T00:23:08.042Z,1007.12
2019-04-11T00:24:07.119Z,1007.15
2019-04-11T00:25:07.353Z,1007.12
2019-04-11T00:26:06.869Z,1007.22
2019-04-11T00:27:06.858Z,1007.10
2019-04-11T00:28:07.784Z,1007.11
2019-04-11T00:29:07.003Z,1007.13
2019-04-11T00:30:07.988Z,1007.12
2019-04-11T00:31:06.870Z,1007.10
2019-04-11T00:32:09.163Z,1007.15
2019-04-11T00:33:07.854Z,1007.22
2019-04-11T00:34:06.955Z,1007.17
2019-04-11T00:35:07.170Z,1007.13
2019-04-11T00:36:06.757Z,1007.24
2019-04-11T00:37:06.749Z,1007.12
2019-04-11T00:38:07.720Z,1007.17
2019-04-11T00:39:07.667Z,1007.16
2019-04-11T00:40:06.835Z,1007.19
2019-04-11T00:41:07.873Z,1007.26
2019-04-11T00:42:06.710Z,1007.25
2019-04-11T00:43:07.359Z,1007.16
2019-04-11T00:44:06.667Z,1007.25
2019-04-11T00:45:07.560Z,1007.24
2019-04-11T00:46:07.797Z,1007.28
2019-04-11T00:47:06.913Z,1007.22
2019-04-11T00:48:06.623Z,1007.24
2019-04-11T00:49:06.604Z,1007.24
2019-04-11T00:50:07.386Z,1007.25
2019-04-11T00:51:07.589Z,1007.30
2019-04-11T00:52:06.617Z,1007.28
2019-04-11T00:53:06.609Z,1007.25
2019-04-11T00:54:06.732Z,1007.30
2019-04-11T00:55:07.162Z,1007.28
2019-04-11T00:56:06.576Z,1007.34
2019-04-11T00:57:06.638Z,1007.35
2019-04-11T00:58:07.500Z,1007.34
2019-04-11T00:59:06.504Z,1007.29
2019-04-11T01:00:06.948Z,1007.31
2019-04-11T01:01:07.218Z,1007.31
2019-04-11T01:02:07.297Z,1007.28
2019-04-11T01:03:06.571Z,1007.32
2019-04-11T01:04:07.514Z,1007.30
2019-04-11T01:05:07.477Z,1007.30
2019-04-11T01:06:06.426Z,1007.34
2019-04-11T01:07:06.853Z,1007.28
2019-04-11T01:08:07.262Z,1007.30
2019-04-11T01:09:06.406Z,1007.28
2019-04-11T01:10:06.714Z,1007.27
2019-04-11T01:11:06.378Z,1007.32
2019-04-11T01:12:06.375Z,1007.35
2019-04-11T01:13:07.138Z,1007.38
2019-04-11T01:14:06.331Z,1007.34
2019-04-11T01:15:07.048Z,1007.37
2019-04-11T01:16:07.098Z,1007.32
2019-04-11T01:17:07.794Z,1007.37
2019-04-11T01:18:06.288Z,1007.43
2019-04-11T01:19:07.129Z,1007.33
2019-04-11T01:20:07.004Z,1007.32
2019-04-11T01:21:06.297Z,1007.30
2019-04-11T01:22:06.260Z,1007.38
2019-04-11T01:23:06.823Z,1007.35
2019-04-11T01:24:07.210Z,1007.37
2019-04-11T01:25:06.377Z,1007.36
2019-04-11T01:26:06.251Z,1007.36
2019-04-11T01:27:06.183Z,1007.33
2019-04-11T01:28:06.810Z,1007.42
2019-04-11T01:29:07.163Z,1007.40
2019-04-11T01:30:06.221Z,1007.38
2019-04-11T01:31:06.199Z,1007.38
2019-04-11T01:32:06.506Z,1007.39
2019-04-11T01:33:06.649Z,1007.36
2019-04-11T01:34:06.515Z,1007.37
2019-04-11T01:35:06.888Z,1007.40
2019-04-11T01:36:06.988Z,1007.36
2019-04-11T01:37:07.164Z,1007.37
2019-04-11T01:38:06.250Z,1007.40
2019-04-11T01:39:06.069Z,1007.49
2019-04-11T01:40:06.078Z,1007.48
2019-04-11T01:41:06.595Z,1007.51
2019-04-11T01:42:07.022Z,1007.48
2019-04-11T01:43:06.071Z,1007.47
2019-04-11T01:44:07.529Z,1007.53
2019-04-11T01:45:06.002Z,1007.44
2019-04-11T01:46:05.973Z,1007.49
2019-04-11T01:47:06.675Z,1007.53
2019-04-11T01:48:06.958Z,1007.49
2019-04-11T01:49:06.154Z,1007.53
2019-04-11T01:50:05.934Z,1007.55
2019-04-11T01:51:05.923Z,1007.56
2019-04-11T01:52:06.507Z,1007.51
2019-04-11T01:53:06.853Z,1007.58
2019-04-11T01:54:05.890Z,1007.56
2019-04-11T01:55:06.068Z,1007.50
2019-04-11T01:56:07.221Z,1007.61
2019-04-11T01:57:05.863Z,1007.63
2019-04-11T01:58:06.642Z,1007.56
2019-04-11T01:59:06.920Z,1007.59
2019-04-11T02:00:06.038Z,1007.71
2019-04-11T02:01:06.365Z,1007.60
2019-04-11T02:02:05.797Z,1007.64
2019-04-11T02:03:06.727Z,1007.65
2019-04-11T02:04:05.907Z,1007.63
2019-04-11T02:05:05.765Z,1007.70
2019-04-11T02:06:05.760Z,1007.74
2019-04-11T02:07:06.634Z,1007.73
2019-04-11T02:08:05.742Z,1007.69
2019-04-11T02:09:06.048Z,1007.66
2019-04-11T02:10:05.714Z,1007.73
2019-04-11T02:11:07.178Z,1007.70
2019-04-11T02:12:05.842Z,1007.77
2019-04-11T02:13:05.876Z,1007.78
2019-04-11T02:14:12.436Z,1007.81
2019-04-11T02:15:06.679Z,1007.80
2019-04-11T02:16:05.659Z,1007.77
2019-04-11T02:17:06.398Z,1007.78
2019-04-11T02:18:05.628Z,1007.82
2019-04-11T02:19:05.841Z,1007.84
2019-04-11T02:20:05.632Z,1007.89
2019-04-11T02:21:05.595Z,1007.95
2019-04-11T02:22:06.297Z,1007.90
2019-04-11T02:23:06.662Z,1007.90
2019-04-11T02:24:05.814Z,1007.91
2019-04-11T02:25:06.551Z,1007.88
2019-04-11T02:26:05.561Z,1007.89
2019-04-11T02:27:06.496Z,1007.91
2019-04-11T02:28:06.559Z,1007.86
2019-04-11T02:29:05.620Z,1007.84
2019-04-11T02:30:05.491Z,1007.84
2019-04-11T02:31:07.174Z,1007.91
2019-04-11T02:32:06.050Z,1007.86
2019-04-11T02:33:07.222Z,1007.90
2019-04-11T02:34:06.511Z,1007.89
2019-04-11T02:35:07.832Z,1007.90
2019-04-11T02:36:07.249Z,1007.93
2019-04-11T02:37:07.021Z,1007.95
2019-04-11T02:38:07.371Z,1007.98
2019-04-11T02:39:10.224Z,1007.91
2019-04-11T02:40:07.545Z,1007.95
2019-04-11T02:41:06.452Z,1008.00
2019-04-11T02:42:06.537Z,1007.99
2019-04-11T02:43:07.108Z,1007.97
2019-04-11T02:44:07.280Z,1007.94
2019-04-11T02:45:23.097Z,1007.96
2019-04-11T02:46:17.417Z,1008.02
2019-04-11T02:47:11.477Z,1007.97
2019-04-11T02:48:09.336Z,1007.96
2019-04-11T02:49:05.963Z,1007.98
2019-04-11T02:50:05.892Z,1008.01
2019-04-11T02:51:07.369Z,1007.96
2019-04-11T02:52:06.938Z,1008.02
2019-04-11T02:53:07.096Z,1008.02
2019-04-11T02:54:06.842Z,1007.97
2019-04-11T02:55:05.782Z,1008.04
2019-04-11T02:56:06.363Z,1007.98
2019-04-11T02:57:05.683Z,1008.07
2019-04-11T02:58:06.260Z,1008.05
2019-04-11T02:59:05.527Z,1008.00
2019-04-11T03:00:06.507Z,1008.00
2019-04-11T03:01:07.022Z,1008.06
2019-04-11T03:02:06.831Z,1008.03
2019-04-11T03:03:05.722Z,1007.98
2019-04-11T03:04:07.257Z,1008.07
2019-04-11T03:05:06.950Z,1008.02
2019-04-11T03:06:06.926Z,1007.99
2019-04-11T03:07:05.896Z,1008.02
2019-04-11T03:08:07.827Z,1008.08
2019-04-11T03:09:07.056Z,1008.06
2019-04-11T03:10:07.050Z,1008.05
2019-04-11T03:11:05.429Z,1007.97
2019-04-11T03:12:05.275Z,1008.03
2019-04-11T03:13:05.081Z,1008.03
2019-04-11T03:14:05.197Z,1008.11
2019-04-11T03:15:21.238Z,1008.04
2019-04-11T03:16:23.820Z,1008.05
2019-04-11T03:17:12.824Z,1008.02
2019-04-11T03:18:09.195Z,1008.08
2019-04-11T03:19:22.685Z,1007.96
2019-04-11T03:20:15.416Z,1008.00
2019-04-11T03:21:11.318Z,1008.03
2019-04-11T03:22:07.897Z,1008.06
2019-04-11T03:23:07.612Z,1008.01
2019-04-11T03:24:08.251Z,1008.04
2019-04-11T03:25:07.963Z,1008.03
2019-04-11T03:26:05.453Z,1008.05
2019-04-11T03:27:07.092Z,1008.04
2019-04-11T03:28:05.540Z,1008.19
2019-04-11T03:29:06.468Z,1008.11
2019-04-11T03:30:10.056Z,1008.15
2019-04-11T03:31:42.231Z,1008.13
2019-04-11T03:32:51.425Z,1008.20
2019-04-11T03:35:06.265Z,1008.27
2019-04-11T03:37:08.700Z,1008.21
2019-04-11T03:37:26.226Z,1008.22
2019-04-11T03:38:29.302Z,1008.25
2019-04-11T03:39:29.098Z,1008.24
2019-04-11T03:40:25.976Z,1008.26
2019-04-11T03:41:25.318Z,1008.27
2019-04-11T03:42:24.408Z,1008.21
2019-04-11T03:43:22.701Z,1008.27
2019-04-11T03:44:14.373Z,1008.19
2019-04-11T03:45:27.596Z,1008.19
2019-04-11T03:46:24.896Z,1008.27
2019-04-11T03:47:20.541Z,1008.24
2019-04-11T03:48:19.585Z,1008.26
2019-04-11T03:49:19.366Z,1008.20
2019-04-11T03:50:10.783Z,1008.25
2019-04-11T03:51:05.895Z,1008.25
2019-04-11T03:52:05.823Z,1008.24
2019-04-11T03:53:06.469Z,1008.30
2019-04-11T03:54:04.996Z,1008.27
2019-04-11T03:55:06.871Z,1008.31
2019-04-11T03:56:04.664Z,1008.37
2019-04-11T03:57:05.516Z,1008.32
2019-04-11T03:58:06.167Z,1008.31
2019-04-11T03:59:06.025Z,1008.29
2019-04-11T04:00:06.346Z,1008.33
2019-04-11T04:01:08.436Z,1008.35
2019-04-11T04:02:06.423Z,1008.38
2019-04-11T04:03:06.051Z,1008.34
2019-04-11T04:04:04.474Z,1008.36
2019-04-11T04:05:06.694Z,1008.39
2019-04-11T04:06:04.632Z,1008.36
2019-04-11T04:07:04.881Z,1008.38
2019-04-11T04:08:05.979Z,1008.44
2019-04-11T04:09:04.433Z,1008.44
2019-04-11T04:10:05.176Z,1008.45
2019-04-11T04:11:05.922Z,1008.43
2019-04-11T04:12:05.010Z,1008.44
2019-04-11T04:13:05.416Z,1008.45
2019-04-11T04:14:04.514Z,1008.47
2019-04-11T04:15:06.582Z,1008.47
2019-04-11T04:16:15.276Z,1008.48
2019-04-11T04:17:06.892Z,1008.46
2019-04-11T04:18:05.746Z,1008.49
2019-04-11T04:19:05.229Z,1008.48
2019-04-11T04:20:05.103Z,1008.53
2019-04-11T04:21:06.440Z,1008.51
2019-04-11T04:22:05.039Z,1008.50
2019-04-11T04:23:05.275Z,1008.57
2019-04-11T04:24:04.373Z,1008.57
2019-04-11T04:25:04.509Z,1008.56
2019-04-11T04:26:06.168Z,1008.59
2019-04-11T04:27:05.135Z,1008.58
2019-04-11T04:28:05.480Z,1008.62
2019-04-11T04:29:04.558Z,1008.68
2019-04-11T04:30:05.335Z,1008.62
2019-04-11T04:31:04.677Z,1008.67
2019-04-11T04:32:05.447Z,1008.66
2019-04-11T04:33:04.948Z,1008.68
2019-04-11T04:34:04.159Z,1008.69
2019-04-11T04:35:07.256Z,1008.67
2019-04-11T04:36:10.113Z,1008.72
2019-04-11T04:37:05.869Z,1008.75
2019-04-11T04:38:05.163Z,1008.72
2019-04-11T04:39:05.603Z,1008.80
2019-04-11T04:40:23.836Z,1008.81
2019-04-11T04:41:16.360Z,1008.78
2019-04-11T04:42:11.126Z,1008.75
2019-04-11T04:43:07.089Z,1008.78
2019-04-11T04:44:04.935Z,1008.78
2019-04-11T04:45:05.144Z,1008.83
2019-04-11T04:46:23.779Z,1008.85
2019-04-11T04:47:15.603Z,1008.79
2019-04-11T04:48:11.092Z,1008.86
2019-04-11T04:49:06.744Z,1008.81
2019-04-11T04:50:06.132Z,1008.81
2019-04-11T04:51:08.472Z,1008.82
2019-04-11T04:52:06.086Z,1008.86
2019-04-11T04:53:05.156Z,1008.86
2019-04-11T04:54:04.062Z,1008.89
2019-04-11T04:55:05.916Z,1008.91
2019-04-11T04:56:04.147Z,1008.92
2019-04-11T04:57:05.064Z,1008.98
2019-04-11T04:58:04.930Z,1008.93
2019-04-11T04:59:04.898Z,1008.97
2019-04-11T05:00:06.610Z,1008.95
2019-04-11T05:01:06.192Z,1008.97
2019-04-11T05:02:05.763Z,1008.97
2019-04-11T05:03:05.530Z,1009.03
2019-04-11T05:04:04.807Z,1009.04
2019-04-11T05:05:05.918Z,1009.01
2019-04-11T05:06:04.209Z,1009.08
2019-04-11T05:07:05.157Z,1009.06
2019-04-11T05:08:03.798Z,1009.09
2019-04-11T05:09:04.343Z,1009.06
2019-04-11T05:10:06.436Z,1009.06
2019-04-11T05:11:04.519Z,1009.08
2019-04-11T05:12:05.412Z,1009.10
2019-04-11T05:13:03.834Z,1009.09
2019-04-11T05:14:05.027Z,1009.11
2019-04-11T05:15:03.846Z,1009.08
2019-04-11T05:16:14.470Z,1009.03
2019-04-11T05:17:04.678Z,1009.12
2019-04-11T05:18:04.147Z,1009.12
2019-04-11T05:19:04.475Z,1009.16
2019-04-11T05:20:04.952Z,1009.14
2019-04-11T05:21:03.686Z,1009.10
2019-04-11T05:22:03.636Z,1009.16
2019-04-11T05:23:04.323Z,1009.16
2019-04-11T05:24:04.022Z,1009.10
2019-04-11T05:25:05.082Z,1009.14
2019-04-11T05:26:03.603Z,1009.16
2019-04-11T05:27:04.178Z,1009.15
2019-04-11T05:28:04.367Z,1009.16
2019-04-11T05:29:04.687Z,1009.20
2019-04-11T05:30:03.537Z,1009.19
2019-04-11T05:31:03.537Z,1009.19
2019-04-11T05:32:03.548Z,1009.19
2019-04-11T05:33:04.013Z,1009.20
2019-04-11T05:34:03.547Z,1009.19
2019-04-11T05:35:04.757Z,1009.26
2019-04-11T05:36:03.965Z,1009.34
2019-04-11T05:37:03.944Z,1009.32
2019-04-11T05:38:03.473Z,1009.32
2019-04-11T05:39:03.468Z,1009.25
2019-04-11T05:40:03.433Z,1009.32
2019-04-11T05:41:04.267Z,1009.31
2019-04-11T05:42:03.446Z,1009.32
2019-04-11T05:43:03.876Z,1009.36
2019-04-11T05:44:07.703Z,1009.36
2019-04-11T05:45:05.387Z,1009.39
2019-04-11T05:46:10.169Z,1009.36
2019-04-11T05:47:06.742Z,1009.37
2019-04-11T05:48:03.378Z,1009.43
2019-04-11T05:49:03.846Z,1009.30
2019-04-11T05:50:06.488Z,1009.38
2019-04-11T05:51:04.557Z,1009.39
2019-04-11T05:52:03.963Z,1009.36
2019-04-11T05:53:03.922Z,1009.41
2019-04-11T05:54:07.496Z,1009.42
2019-04-11T05:55:03.271Z,1009.39
2019-04-11T05:56:03.649Z,1009.42
2019-04-11T05:57:03.330Z,1009.42
2019-04-11T05:58:08.652Z,1009.41
2019-04-11T05:59:05.283Z,1009.47
2019-04-11T06:00:03.507Z,1009.49
2019-04-11T06:01:03.486Z,1009.39
2019-04-11T06:02:07.280Z,1009.46
2019-04-11T06:03:03.846Z,1009.51
2019-04-11T06:04:03.204Z,1009.44
2019-04-11T06:05:03.171Z,1009.48
2019-04-11T06:06:03.626Z,1009.54
2019-04-11T06:07:03.313Z,1009.47
2019-04-11T06:08:05.095Z,1009.52
2019-04-11T06:09:04.019Z,1009.50
2019-04-11T06:10:06.968Z,1009.52
2019-04-11T06:11:05.553Z,1009.50
2019-04-11T06:12:03.345Z,1009.48
2019-04-11T06:13:03.080Z,1009.49
2019-04-11T06:14:05.717Z,1009.55
2019-04-11T06:15:03.928Z,1009.59
2019-04-11T06:16:04.529Z,1009.52
2019-04-11T06:17:03.123Z,1009.54
2019-04-11T06:18:03.159Z,1009.50
2019-04-11T06:19:03.998Z,1009.55
2019-04-11T06:20:04.049Z,1009.53
2019-04-11T06:21:03.969Z,1009.56
2019-04-11T06:22:02.983Z,1009.52
2019-04-11T06:23:03.891Z,1009.55
2019-04-11T06:24:03.569Z,1009.56
2019-04-11T06:25:03.561Z,1009.60
2019-04-11T06:26:03.001Z,1009.62
2019-04-11T06:27:03.983Z,1009.64
2019-04-11T06:28:04.024Z,1009.62
2019-04-11T06:29:14.708Z,1009.69
2019-04-11T06:30:03.906Z,1009.72
2019-04-11T06:31:04.539Z,1009.62
2019-04-11T06:32:03.516Z,1009.77
2019-04-11T06:33:02.890Z,1009.76
2019-04-11T06:34:02.865Z,1009.71
2019-04-11T06:35:03.975Z,1009.72
2019-04-11T06:36:02.840Z,1009.77
2019-04-11T06:37:03.591Z,1009.76
2019-04-11T06:38:02.834Z,1009.73
2019-04-11T06:39:03.027Z,1009.70
2019-04-11T06:40:04.085Z,1009.58
2019-04-11T06:41:02.979Z,1009.66
2019-04-11T06:42:04.118Z,1009.67
2019-04-11T06:43:03.624Z,1009.67
2019-04-11T06:44:02.762Z,1009.64
2019-04-11T06:45:03.998Z,1009.60
2019-04-11T06:46:03.005Z,1009.62
2019-04-11T06:47:03.854Z,1009.68
2019-04-11T06:48:02.699Z,1009.69
2019-04-11T06:49:02.727Z,1009.70
2019-04-11T06:50:02.869Z,1009.70
2019-04-11T06:51:03.810Z,1009.72
2019-04-11T06:52:02.660Z,1009.70
2019-04-11T06:53:02.650Z,1009.63
2019-04-11T06:54:02.669Z,1009.68
2019-04-11T06:55:02.786Z,1009.64
2019-04-11T06:56:03.568Z,1009.66
2019-04-11T06:57:02.606Z,1009.62
2019-04-11T06:58:02.746Z,1009.72
2019-04-11T06:59:03.854Z,1009.65
2019-04-11T07:00:02.960Z,1009.65
2019-04-11T07:01:03.518Z,1009.69
2019-04-11T07:02:10.785Z,1009.67
2019-04-11T07:03:03.628Z,1009.61
2019-04-11T07:04:03.016Z,1009.62
2019-04-11T07:05:02.657Z,1009.67
2019-04-11T07:06:02.884Z,1009.64
2019-04-11T07:07:02.500Z,1009.63
2019-04-11T07:08:02.514Z,1009.70
2019-04-11T07:09:03.301Z,1009.72
2019-04-11T07:10:02.485Z,1009.73
2019-04-11T07:11:02.945Z,1009.68
2019-04-11T07:12:03.508Z,1009.67
2019-04-11T07:13:03.473Z,1009.68
2019-04-11T07:14:02.450Z,1009.79
2019-04-11T07:15:02.585Z,1009.78
2019-04-11T07:16:02.693Z,1009.77
2019-04-11T07:17:07.171Z,1009.76
2019-04-11T07:18:07.063Z,1009.72
2019-04-11T07:19:02.841Z,1009.71
2019-04-11T07:20:02.570Z,1009.69
2019-04-11T07:21:02.930Z,1009.75
2019-04-11T07:22:02.541Z,1009.76
2019-04-11T07:23:02.313Z,1009.70
2019-04-11T07:24:03.252Z,1009.72
2019-04-11T07:25:02.335Z,1009.77
2019-04-11T07:26:02.621Z,1009.85
2019-04-11T07:27:03.109Z,1009.78
2019-04-11T07:28:02.585Z,1009.74
2019-04-11T07:29:02.313Z,1009.76
2019-04-11T07:30:03.142Z,1009.80
2019-04-11T07:31:02.902Z,1009.75
2019-04-11T07:32:02.621Z,1009.79
2019-04-11T07:33:02.254Z,1009.87
2019-04-11T07:34:02.511Z,1009.83
2019-04-11T07:35:02.390Z,1009.81
2019-04-11T07:36:02.188Z,1009.78
2019-04-11T07:37:02.718Z,1009.86
2019-04-11T07:38:03.144Z,1009.86
2019-04-11T07:39:03.257Z,1009.77
2019-04-11T07:40:03.140Z,1009.79
2019-04-11T07:41:02.124Z,1009.88
2019-04-11T07:42:02.122Z,1009.82
2019-04-11T07:43:08.142Z,1009.79
2019-04-11T07:44:04.272Z,1009.75
2019-04-11T07:45:02.116Z,1009.84
2019-04-11T07:46:02.726Z,1009.83
2019-04-11T07:47:13.595Z,1009.79
2019-04-11T07:48:03.039Z,1009.87
2019-04-11T07:49:02.030Z,1009.79
2019-04-11T07:50:02.329Z,1009.86
2019-04-11T07:51:02.056Z,1009.74
2019-04-11T07:52:02.505Z,1009.80
2019-04-11T07:53:03.079Z,1009.81
2019-04-11T07:54:02.639Z,1009.79
2019-04-11T07:55:02.633Z,1009.82
2019-04-11T07:56:03.548Z,1009.85
2019-04-11T07:57:01.949Z,1009.79
2019-04-11T07:58:02.147Z,1009.85
2019-04-11T07:59:02.905Z,1009.82
2019-04-11T08:00:01.944Z,1009.77
2019-04-11T08:01:01.895Z,1009.77
2019-04-11T08:02:01.889Z,1009.79
2019-04-11T08:03:02.390Z,1009.92
2019-04-11T08:04:01.908Z,1009.86
2019-04-11T08:05:02.405Z,1009.82
2019-04-11T08:06:02.968Z,1009.85
2019-04-11T08:07:02.156Z,1009.89
2019-04-11T08:08:02.708Z,1009.84
2019-04-11T08:09:02.691Z,1009.81
2019-04-11T08:10:02.461Z,1009.87
2019-04-11T08:11:02.405Z,1009.82
2019-04-11T08:12:02.433Z,1009.80
2019-04-11T08:13:01.769Z,1009.84
2019-04-11T08:14:02.191Z,1009.83
2019-04-11T08:15:01.783Z,1009.91
2019-04-11T08:16:02.386Z,1009.92
2019-04-11T08:17:01.755Z,1009.87
2019-04-11T08:18:02.013Z,1009.93
2019-04-11T08:19:01.722Z,1009.82
2019-04-11T08:20:02.914Z,1009.84
2019-04-11T08:21:01.777Z,1010.00
2019-04-11T08:22:02.936Z,1009.89
2019-04-11T08:23:03.409Z,1009.84
2019-04-11T08:24:02.400Z,1010.05
2019-04-11T08:25:01.917Z,1009.90
2019-04-11T08:26:01.894Z,1009.86
2019-04-11T08:27:01.610Z,1009.87
2019-04-11T08:28:03.914Z,1009.88
2019-04-11T08:29:09.243Z,1009.89
2019-04-11T08:30:02.769Z,1009.87
2019-04-11T08:31:01.614Z,1009.87
2019-04-11T08:32:02.615Z,1009.88
2019-04-11T08:33:02.391Z,1009.92
2019-04-11T08:34:02.662Z,1009.91
2019-04-11T08:35:01.991Z,1009.90
2019-04-11T08:36:01.831Z,1009.82
2019-04-11T08:37:09.413Z,1009.91
2019-04-11T08:38:02.824Z,1009.93
2019-04-11T08:39:01.618Z,1009.91
2019-04-11T08:40:01.803Z,1009.88
2019-04-11T08:41:01.461Z,1009.97
2019-04-11T08:42:01.472Z,1009.96
2019-04-11T08:43:02.515Z,1010.04
2019-04-11T08:44:01.593Z,1010.03
2019-04-11T08:45:01.449Z,1010.00
2019-04-11T08:46:02.510Z,1010.03
2019-04-11T08:47:02.515Z,1010.11
2019-04-11T08:48:02.531Z,1009.94
2019-04-11T08:49:01.583Z,1009.95
2019-04-11T08:50:02.087Z,1010.03
2019-04-11T08:51:01.346Z,1010.03
2019-04-11T08:52:01.337Z,1010.10
2019-04-11T08:53:02.490Z,1010.03
2019-04-11T08:54:01.488Z,1009.96
2019-04-11T08:55:02.188Z,1010.05
2019-04-11T08:56:02.604Z,1009.98
2019-04-11T08:57:01.329Z,1010.18
2019-04-11T08:58:02.331Z,1010.04
2019-04-11T08:59:01.265Z,1009.96
2019-04-11T09:00:02.191Z,1009.96
2019-04-11T09:01:01.259Z,1010.00
2019-04-11T09:02:02.509Z,1009.97
2019-04-11T09:03:01.768Z,1010.22
2019-04-11T09:04:07.042Z,1010.04
2019-04-11T09:05:07.016Z,1009.99
2019-04-11T09:06:02.773Z,1010.01
2019-04-11T09:07:01.205Z,1009.95
2019-04-11T09:08:02.178Z,1010.17
2019-04-11T09:09:01.153Z,1010.02
2019-04-11T09:10:02.014Z,1010.09
2019-04-11T09:11:01.241Z,1010.04
2019-04-11T09:12:02.378Z,1010.07
2019-04-11T09:13:01.158Z,1010.09
2019-04-11T09:14:01.896Z,1010.08
2019-04-11T09:15:02.108Z,1010.13
2019-04-11T09:16:01.410Z,1010.13
2019-04-11T09:17:01.769Z,1010.10
2019-04-11T09:18:05.715Z,1010.05
2019-04-11T09:19:03.339Z,1010.04
2019-04-11T09:20:01.144Z,1010.04
2019-04-11T09:21:02.266Z,1010.04
2019-04-11T09:22:01.050Z,1010.03
2019-04-11T09:23:01.631Z,1009.98
2019-04-11T09:24:01.946Z,1010.08
2019-04-11T09:25:01.023Z,1010.06
2019-04-11T09:26:01.593Z,1010.07
2019-04-11T09:27:09.002Z,1010.15
2019-04-11T09:28:00.950Z,1010.05
2019-04-11T09:29:01.860Z,1010.13
2019-04-11T09:30:02.357Z,1010.10
2019-04-11T09:31:01.187Z,1010.11
2019-04-11T09:32:02.140Z,1010.10
2019-04-11T09:33:00.906Z,1010.08
2019-04-11T09:34:01.643Z,1010.10
2019-04-11T09:35:01.859Z,1010.03
2019-04-11T09:36:01.758Z,1010.13
2019-04-11T09:37:01.040Z,1010.08
2019-04-11T09:38:02.121Z,1010.04
2019-04-11T09:39:00.845Z,1010.08
2019-04-11T09:40:01.666Z,1010.03
2019-04-11T09:41:00.818Z,1010.17
2019-04-11T09:42:00.953Z,1010.10
2019-04-11T09:43:01.785Z,1010.06
2019-04-11T09:44:00.774Z,1010.08
2019-04-11T09:45:01.396Z,1010.09
2019-04-11T09:46:01.892Z,1010.13
2019-04-11T09:47:01.363Z,1010.19
2019-04-11T09:48:08.360Z,1010.13
2019-04-11T09:49:02.413Z,1010.07
2019-04-11T09:50:00.707Z,1010.13
2019-04-11T09:51:00.886Z,1010.13
2019-04-11T09:52:00.688Z,1010.29
2019-04-11T09:53:01.585Z,1010.20
2019-04-11T09:54:01.495Z,1010.20
2019-04-11T09:55:00.900Z,1010.19
2019-04-11T09:56:00.666Z,1010.24
2019-04-11T09:57:00.658Z,1010.31
2019-04-11T09:58:01.359Z,1010.20
2019-04-11T09:59:00.613Z,1010.35
2019-04-11T10:00:01.834Z,1010.28
2019-04-11T10:01:01.692Z,1010.30
2019-04-11T10:02:00.602Z,1010.23
2019-04-11T10:03:01.359Z,1010.18
2019-04-11T10:04:01.535Z,1010.20
2019-04-11T10:05:02.619Z,1010.20
2019-04-11T10:06:00.541Z,1010.28
2019-04-11T10:07:01.288Z,1010.17
2019-04-11T10:08:00.517Z,1010.18
2019-04-11T10:09:01.693Z,1010.24
2019-04-11T10:10:00.487Z,1010.21
2019-04-11T10:11:01.654Z,1010.24
2019-04-11T10:13:22.073Z,1010.22
2019-04-11T10:14:22.047Z,1010.23
2019-04-11T10:15:23.161Z,1010.27
2019-04-11T10:16:22.152Z,1010.27
2019-04-11T10:17:24.316Z,1010.15
2019-04-11T10:18:27.979Z,1010.16
2019-04-11T10:19:24.215Z,1010.14
2019-04-11T10:20:21.992Z,1010.23
2019-04-11T10:21:23.033Z,1010.09
2019-04-11T10:22:22.735Z,1010.15
2019-04-11T10:23:22.913Z,1010.14
2019-04-11T10:24:22.447Z,1010.20
2019-04-11T10:25:23.158Z,1010.08
2019-04-11T10:26:21.918Z,1010.15
2019-04-11T10:27:22.582Z,1010.18
2019-04-11T10:28:21.896Z,1010.08
2019-04-11T10:29:21.916Z,1010.09
2019-04-11T10:30:23.762Z,1010.17
2019-04-11T10:31:22.393Z,1010.04
2019-04-11T10:32:21.886Z,1010.18
2019-04-11T10:33:22.604Z,1010.08
2019-04-11T10:34:21.840Z,1010.12
2019-04-11T10:35:22.059Z,1010.08
2019-04-11T10:36:23.061Z,1010.15
2019-04-11T10:37:21.838Z,1010.06
2019-04-11T10:38:22.504Z,1010.17
2019-04-11T10:39:21.784Z,1010.16
2019-04-11T10:40:21.783Z,1010.13
2019-04-11T10:41:22.943Z,1010.11
2019-04-11T10:42:22.188Z,1010.12
2019-04-11T10:43:22.481Z,1010.05
2019-04-11T10:44:21.735Z,1010.07
2019-04-11T10:45:22.676Z,1010.03
2019-04-11T10:46:22.937Z,1010.06
2019-04-11T10:47:22.818Z,1010.04
2019-04-11T10:48:33.492Z,1010.05
2019-04-11T10:49:22.673Z,1010.02
2019-04-11T10:50:21.837Z,1010.06
2019-04-11T10:51:22.583Z,1010.15
2019-04-11T10:52:22.561Z,1010.02
2019-04-11T10:53:22.821Z,1010.18
2019-04-11T10:54:21.859Z,1010.04
2019-04-11T10:55:21.858Z,1010.10
2019-04-11T10:56:22.253Z,1010.07
2019-04-11T10:57:22.535Z,1010.05
2019-04-11T10:58:21.628Z,1010.06
2019-04-11T10:59:21.664Z,1010.05
2019-04-11T11:00:22.992Z,1010.03
2019-04-11T11:01:24.963Z,1010.05
2019-04-11T11:02:21.533Z,1010.12
2019-04-11T11:03:22.238Z,1010.10
2019-04-11T11:04:21.543Z,1010.03
2019-04-11T11:05:22.175Z,1010.10
2019-04-11T11:06:21.871Z,1010.09
2019-04-11T11:07:21.590Z,1010.15
2019-04-11T11:08:21.633Z,1010.08
2019-04-11T11:09:21.876Z,1010.11
2019-04-11T11:10:21.707Z,1010.08
2019-04-11T11:11:21.947Z,1010.07
2019-04-11T11:12:21.489Z,1010.00
2019-04-11T11:13:21.685Z,1010.15
2019-04-11T11:14:22.747Z,1010.13
2019-04-11T11:15:21.413Z,1010.05
2019-04-11T11:16:22.310Z,1010.11
2019-04-11T11:17:54.855Z,1010.04
2019-04-11T11:18:49.162Z,1010.05
2019-04-11T11:19:40.261Z,1010.16
2019-04-11T11:20:28.815Z,1010.03
2019-04-11T11:21:29.401Z,1010.02
2019-04-11T11:22:23.733Z,1010.03
2019-04-11T11:23:21.660Z,1010.02
2019-04-11T11:24:21.877Z,1010.05
2019-04-11T11:25:22.395Z,1010.11
2019-04-11T11:26:23.043Z,1010.04
2019-04-11T11:27:22.315Z,1010.09
2019-04-11T11:28:21.547Z,1010.09
2019-04-11T11:29:21.534Z,1010.09
2019-04-11T11:30:21.417Z,1010.19
2019-04-11T11:31:22.375Z,1010.19
2019-04-11T11:32:22.054Z,1010.12
2019-04-11T11:33:22.374Z,1010.16
2019-04-11T11:34:21.980Z,1010.13
2019-04-11T11:35:25.275Z,1010.16
2019-04-11T11:36:23.422Z,1010.16
2019-04-11T11:37:26.303Z,1010.12
2019-04-11T11:38:23.976Z,1010.08
2019-04-11T11:39:24.748Z,1010.11
2019-04-11T11:40:22.320Z,1010.19
2019-04-11T11:41:21.285Z,1010.12
2019-04-11T11:42:22.121Z,1010.15
2019-04-11T11:43:30.905Z,1010.14
2019-04-11T11:44:53.118Z,1010.09
2019-04-11T11:45:21.482Z,1010.13
2019-04-11T11:46:25.643Z,1010.03
2019-04-11T11:47:22.236Z,1010.06
2019-04-11T11:48:59.296Z,1010.07
2019-04-11T11:50:26.769Z,1010.15
2019-04-11T11:51:28.240Z,1010.15
2019-04-11T11:52:26.960Z,1010.15
2019-04-11T11:53:28.328Z,1010.15
2019-04-11T11:54:27.196Z,1010.17
2019-04-11T11:55:27.260Z,1010.21
2019-04-11T11:56:26.370Z,1010.15
2019-04-11T11:57:26.654Z,1010.24
2019-04-11T11:58:26.382Z,1010.33
2019-04-11T11:59:27.399Z,1010.25
2019-04-11T12:00:27.229Z,1010.27
2019-04-11T12:01:27.433Z,1010.26
2019-04-11T12:02:26.427Z,1010.18
2019-04-11T12:03:29.389Z,1010.22
2019-04-11T12:04:26.308Z,1010.20
2019-04-11T12:05:27.038Z,1010.29
2019-04-11T12:06:27.133Z,1010.17
2019-04-11T12:07:26.265Z,1010.19
2019-04-11T12:08:26.441Z,1010.21
2019-04-11T12:09:26.673Z,1010.16